world map with EGCC marked

EGCC - Airport

This information may not be accurate or current and is not valid for navigation or flight planning. No warranty of fitness for any purpose is made or implied.

flag of Englandflag of United Kingdom

Donate via PayPal

Additional information is available on the NEW Great Circle Mapper

Location
City:  Manchester, England, United Kingdom
Name:Ringway International Airport
ICAO / IATA:EGCC / MAN

Details
Type:Airport (Aerodrome, Airfield)
Use:Public/Civil
Latitude:53°21'14"N (53.353889)
Longitude:2°16'30"W (-2.274999)
Elevation:257 ft (78 m)
Runways:2
Longest:10007 × 148 ft (3050 × 45 m)

Time
Timezone:UTC+0 (DST+3)
Local Time:

Weather
METAR:EGCC  231750Z AUTO 08008KT 050V110 9999 NCD 19/09 Q1024 NOSIG
TAF:EGCC  231659Z 2318/2424 05006KT CAVOK= TAF EGKK 231705Z 2318/2424 02010KT 9999 SCT030 PROB30 TEMPO 2318/2321 7000 SHRA TEMPO 2321/2418 6000 SHRA PROB30 TEMPO 2323/2406 4000 +SHRA PROB40 TEMPO 2410/2418 04015G25KT 4000 +SHRA BECMG 2418/2421 VRB03KT

Related Locations
Nearby:
Farthest:NZBA: 11826 mi / 19033 km
Balclutha, OTA, NZ

Find:

   beyond  
but within

Other Information
Maps:
Sources:

  

Airport Diagram

Airport diagram for EGCC

Airport diagram PDF

 


Great Circle Mapper   Great Circle Mapper
Great Circle Mapper FAQ   Great Circle Mapper FAQ
  Karl's Home Page
KLSē   KLSē Home
   GC on Facebook
Airlines of the World   Airlines of the World
Donate via PayPal


Copyright © 2004-2017, Karl L. Swartz. All rights reserved.
All trademarks mentioned herein belong to their respective owners.

Please see credits for attribution and copyright information.

Karl Swartz <karl@kls2.com>
  Powered by FreeBSD
Valid HTML 4.01!
Labeled with ICRA
hCard Microformat
Geo Microformat